sensor_id;sensor_type;location;lat;lon;timestamp;P1;durP1;ratioP1;P2;durP2;ratioP2
14358;SDS011;7263;49.418;11.064;2022-12-18T00:02:02;38.47;;;27.80;;
14358;SDS011;7263;49.418;11.064;2022-12-18T00:04:29;38.67;;;27.30;;
14358;SDS011;7263;49.418;11.064;2022-12-18T00:06:57;41.13;;;26.73;;
14358;SDS011;7263;49.418;11.064;2022-12-18T00:09:24;40.37;;;27.50;;
14358;SDS011;7263;49.418;11.064;2022-12-18T00:11:51;41.10;;;28.43;;
14358;SDS011;7263;49.418;11.064;2022-12-18T00:14:18;39.33;;;26.63;;
14358;SDS011;7263;49.418;11.064;2022-12-18T00:16:44;39.83;;;27.60;;
14358;SDS011;7263;49.418;11.064;2022-12-18T00:19:12;37.27;;;26.90;;
14358;SDS011;7263;49.418;11.064;2022-12-18T00:21:40;38.33;;;25.77;;
14358;SDS011;7263;49.418;11.064;2022-12-18T00:24:09;38.37;;;24.80;;
14358;SDS011;7263;49.418;11.064;2022-12-18T00:26:36;33.37;;;23.80;;
14358;SDS011;7263;49.418;11.064;2022-12-18T00:29:05;33.73;;;23.07;;
14358;SDS011;7263;49.418;11.064;2022-12-18T00:31:33;33.23;;;21.80;;
14358;SDS011;7263;49.418;11.064;2022-12-18T00:34:00;30.50;;;21.53;;
14358;SDS011;7263;49.418;11.064;2022-12-18T00:36:28;33.63;;;21.50;;
14358;SDS011;7263;49.418;11.064;2022-12-18T00:38:57;31.50;;;20.67;;
14358;SDS011;7263;49.418;11.064;2022-12-18T00:41:27;33.13;;;21.97;;
14358;SDS011;7263;49.418;11.064;2022-12-18T00:44:13;33.83;;;21.70;;
14358;SDS011;7263;49.418;11.064;2022-12-18T00:46:41;31.23;;;22.13;;
14358;SDS011;7263;49.418;11.064;2022-12-18T00:49:08;31.53;;;21.27;;
14358;SDS011;7263;49.418;11.064;2022-12-18T00:51:35;33.70;;;21.37;;
14358;SDS011;7263;49.418;11.064;2022-12-18T00:54:02;30.97;;;22.37;;
14358;SDS011;7263;49.418;11.064;2022-12-18T00:56:30;32.50;;;21.90;;
14358;SDS011;7263;49.418;11.064;2022-12-18T00:58:57;28.73;;;20.33;;
14358;SDS011;7263;49.418;11.064;2022-12-18T01:01:23;30.83;;;21.03;;
14358;SDS011;7263;49.418;11.064;2022-12-18T01:03:50;28.90;;;20.77;;
14358;SDS011;7263;49.418;11.064;2022-12-18T01:06:17;30.00;;;20.13;;
14358;SDS011;7263;49.418;11.064;2022-12-18T01:08:44;29.57;;;20.23;;
14358;SDS011;7263;49.418;11.064;2022-12-18T01:11:12;29.83;;;20.47;;
14358;SDS011;7263;49.418;11.064;2022-12-18T01:13:42;30.87;;;20.30;;
14358;SDS011;7263;49.418;11.064;2022-12-18T01:16:10;35.77;;;21.30;;
14358;SDS011;7263;49.418;11.064;2022-12-18T01:18:38;30.03;;;20.67;;
14358;SDS011;7263;49.418;11.064;2022-12-18T01:21:05;29.00;;;19.73;;
14358;SDS011;7263;49.418;11.064;2022-12-18T01:23:33;28.30;;;20.03;;
14358;SDS011;7263;49.418;11.064;2022-12-18T01:26:03;28.43;;;19.53;;
14358;SDS011;7263;49.418;11.064;2022-12-18T01:28:31;30.40;;;20.70;;
14358;SDS011;7263;49.418;11.064;2022-12-18T01:31:09;29.93;;;20.53;;
14358;SDS011;7263;49.418;11.064;2022-12-18T01:33:41;27.73;;;20.40;;
14358;SDS011;7263;49.418;11.064;2022-12-18T01:36:08;33.33;;;21.07;;
14358;SDS011;7263;49.418;11.064;2022-12-18T01:38:40;36.87;;;21.50;;
14358;SDS011;7263;49.418;11.064;2022-12-18T01:41:07;35.33;;;21.70;;
14358;SDS011;7263;49.418;11.064;2022-12-18T01:43:42;41.47;;;25.73;;
14358;SDS011;7263;49.418;11.064;2022-12-18T01:46:11;36.57;;;23.30;;
14358;SDS011;7263;49.418;11.064;2022-12-18T01:48:38;36.70;;;22.70;;
14358;SDS011;7263;49.418;11.064;2022-12-18T01:51:06;35.67;;;22.73;;
14358;SDS011;7263;49.418;11.064;2022-12-18T01:53:35;34.13;;;19.83;;
14358;SDS011;7263;49.418;11.064;2022-12-18T01:56:03;36.60;;;21.27;;
14358;SDS011;7263;49.418;11.064;2022-12-18T01:58:32;32.97;;;21.87;;
14358;SDS011;7263;49.418;11.064;2022-12-18T02:01:03;32.63;;;20.73;;
14358;SDS011;7263;49.418;11.064;2022-12-18T02:03:31;29.37;;;19.37;;
14358;SDS011;7263;49.418;11.064;2022-12-18T02:05:59;28.80;;;20.33;;
14358;SDS011;7263;49.418;11.064;2022-12-18T02:08:33;29.33;;;19.57;;
14358;SDS011;7263;49.418;11.064;2022-12-18T02:11:07;26.43;;;19.20;;
14358;SDS011;7263;49.418;11.064;2022-12-18T02:13:43;29.80;;;21.07;;
14358;SDS011;7263;49.418;11.064;2022-12-18T02:16:17;30.13;;;19.93;;
14358;SDS011;7263;49.418;11.064;2022-12-18T02:18:51;28.90;;;19.87;;
14358;SDS011;7263;49.418;11.064;2022-12-18T02:21:25;29.47;;;20.83;;
14358;SDS011;7263;49.418;11.064;2022-12-18T02:24:02;29.50;;;20.77;;
14358;SDS011;7263;49.418;11.064;2022-12-18T02:26:45;29.10;;;20.77;;
14358;SDS011;7263;49.418;11.064;2022-12-18T02:29:16;26.80;;;18.73;;
14358;SDS011;7263;49.418;11.064;2022-12-18T02:31:47;29.97;;;19.97;;
14358;SDS011;7263;49.418;11.064;2022-12-18T02:34:17;27.50;;;19.67;;
14358;SDS011;7263;49.418;11.064;2022-12-18T02:36:45;29.37;;;18.37;;
14358;SDS011;7263;49.418;11.064;2022-12-18T02:39:17;31.90;;;20.00;;
14358;SDS011;7263;49.418;11.064;2022-12-18T02:41:48;32.53;;;20.07;;
14358;SDS011;7263;49.418;11.064;2022-12-18T02:44:15;32.50;;;21.13;;
14358;SDS011;7263;49.418;11.064;2022-12-18T02:46:42;29.47;;;20.40;;
14358;SDS011;7263;49.418;11.064;2022-12-18T02:49:13;34.07;;;22.43;;
14358;SDS011;7263;49.418;11.064;2022-12-18T02:51:52;34.67;;;21.70;;
14358;SDS011;7263;49.418;11.064;2022-12-18T02:54:24;35.40;;;22.43;;
14358;SDS011;7263;49.418;11.064;2022-12-18T02:57:14;34.37;;;22.00;;
14358;SDS011;7263;49.418;11.064;2022-12-18T02:59:45;32.93;;;22.17;;
14358;SDS011;7263;49.418;11.064;2022-12-18T03:02:20;37.83;;;24.53;;
14358;SDS011;7263;49.418;11.064;2022-12-18T03:04:50;36.07;;;23.93;;
14358;SDS011;7263;49.418;11.064;2022-12-18T03:07:25;34.70;;;23.20;;
14358;SDS011;7263;49.418;11.064;2022-12-18T03:10:00;36.20;;;24.07;;
14358;SDS011;7263;49.418;11.064;2022-12-18T03:12:30;33.93;;;22.30;;
14358;SDS011;7263;49.418;11.064;2022-12-18T03:15:00;34.27;;;23.23;;
14358;SDS011;7263;49.418;11.064;2022-12-18T03:17:31;37.20;;;24.17;;
14358;SDS011;7263;49.418;11.064;2022-12-18T03:20:02;37.10;;;23.17;;
14358;SDS011;7263;49.418;11.064;2022-12-18T03:22:32;33.90;;;23.43;;
14358;SDS011;7263;49.418;11.064;2022-12-18T03:25:01;33.43;;;22.53;;
14358;SDS011;7263;49.418;11.064;2022-12-18T03:27:33;33.63;;;21.83;;
14358;SDS011;7263;49.418;11.064;2022-12-18T03:30:02;33.47;;;21.60;;
14358;SDS011;7263;49.418;11.064;2022-12-18T03:32:33;32.57;;;22.20;;
14358;SDS011;7263;49.418;11.064;2022-12-18T03:35:06;34.07;;;22.13;;
14358;SDS011;7263;49.418;11.064;2022-12-18T03:37:34;32.73;;;21.40;;
14358;SDS011;7263;49.418;11.064;2022-12-18T03:40:01;31.83;;;21.87;;
14358;SDS011;7263;49.418;11.064;2022-12-18T03:42:29;31.17;;;21.40;;
14358;SDS011;7263;49.418;11.064;2022-12-18T03:45:06;30.83;;;19.87;;
14358;SDS011;7263;49.418;11.064;2022-12-18T03:47:39;30.40;;;20.90;;
14358;SDS011;7263;49.418;11.064;2022-12-18T03:50:13;32.60;;;21.27;;
14358;SDS011;7263;49.418;11.064;2022-12-18T03:52:44;29.80;;;21.13;;
14358;SDS011;7263;49.418;11.064;2022-12-18T03:55:16;30.57;;;20.63;;
14358;SDS011;7263;49.418;11.064;2022-12-18T03:57:46;30.77;;;21.20;;
14358;SDS011;7263;49.418;11.064;2022-12-18T04:00:15;28.50;;;20.10;;
14358;SDS011;7263;49.418;11.064;2022-12-18T04:02:44;30.00;;;20.57;;
14358;SDS011;7263;49.418;11.064;2022-12-18T04:05:13;30.43;;;20.47;;
14358;SDS011;7263;49.418;11.064;2022-12-18T04:07:41;30.47;;;21.33;;
14358;SDS011;7263;49.418;11.064;2022-12-18T04:10:09;27.37;;;19.87;;
14358;SDS011;7263;49.418;11.064;2022-12-18T04:12:38;30.13;;;19.93;;
14358;SDS011;7263;49.418;11.064;2022-12-18T04:15:07;30.70;;;21.37;;
14358;SDS011;7263;49.418;11.064;2022-12-18T04:17:35;27.67;;;19.77;;
14358;SDS011;7263;49.418;11.064;2022-12-18T04:20:02;27.80;;;19.37;;
14358;SDS011;7263;49.418;11.064;2022-12-18T04:22:29;26.77;;;19.23;;
14358;SDS011;7263;49.418;11.064;2022-12-18T04:24:56;26.57;;;18.73;;
14358;SDS011;7263;49.418;11.064;2022-12-18T04:27:23;28.90;;;19.43;;
14358;SDS011;7263;49.418;11.064;2022-12-18T04:29:49;28.63;;;18.73;;
14358;SDS011;7263;49.418;11.064;2022-12-18T04:32:18;24.33;;;18.27;;
14358;SDS011;7263;49.418;11.064;2022-12-18T04:34:44;28.33;;;19.37;;
14358;SDS011;7263;49.418;11.064;2022-12-18T04:37:11;25.97;;;18.83;;
14358;SDS011;7263;49.418;11.064;2022-12-18T04:39:38;28.67;;;19.97;;
14358;SDS011;7263;49.418;11.064;2022-12-18T04:42:05;25.07;;;18.53;;
14358;SDS011;7263;49.418;11.064;2022-12-18T04:44:32;27.37;;;19.73;;
14358;SDS011;7263;49.418;11.064;2022-12-18T04:46:59;27.00;;;19.57;;
14358;SDS011;7263;49.418;11.064;2022-12-18T04:49:27;24.67;;;18.80;;
14358;SDS011;7263;49.418;11.064;2022-12-18T04:51:54;24.57;;;18.50;;
14358;SDS011;7263;49.418;11.064;2022-12-18T04:54:20;25.87;;;19.20;;
14358;SDS011;7263;49.418;11.064;2022-12-18T04:56:47;23.33;;;17.80;;
14358;SDS011;7263;49.418;11.064;2022-12-18T04:59:14;25.80;;;18.70;;
14358;SDS011;7263;49.418;11.064;2022-12-18T05:01:41;26.53;;;17.40;;
14358;SDS011;7263;49.418;11.064;2022-12-18T05:04:08;24.73;;;18.57;;
14358;SDS011;7263;49.418;11.064;2022-12-18T05:06:36;25.33;;;18.20;;
14358;SDS011;7263;49.418;11.064;2022-12-18T05:09:03;24.67;;;18.10;;
14358;SDS011;7263;49.418;11.064;2022-12-18T05:11:29;24.17;;;17.63;;
14358;SDS011;7263;49.418;11.064;2022-12-18T05:13:56;23.73;;;17.80;;
14358;SDS011;7263;49.418;11.064;2022-12-18T05:16:23;24.87;;;18.13;;
14358;SDS011;7263;49.418;11.064;2022-12-18T05:18:50;25.47;;;18.20;;
14358;SDS011;7263;49.418;11.064;2022-12-18T05:21:16;25.57;;;19.20;;
14358;SDS011;7263;49.418;11.064;2022-12-18T05:23:44;22.27;;;17.40;;
14358;SDS011;7263;49.418;11.064;2022-12-18T05:26:14;25.37;;;17.73;;
14358;SDS011;7263;49.418;11.064;2022-12-18T05:29:03;24.17;;;18.17;;
14358;SDS011;7263;49.418;11.064;2022-12-18T05:31:29;25.80;;;20.07;;
14358;SDS011;7263;49.418;11.064;2022-12-18T05:33:57;25.50;;;18.37;;
14358;SDS011;7263;49.418;11.064;2022-12-18T05:36:24;27.70;;;19.67;;
14358;SDS011;7263;49.418;11.064;2022-12-18T05:38:52;25.60;;;19.50;;
14358;SDS011;7263;49.418;11.064;2022-12-18T05:41:19;26.03;;;19.47;;
14358;SDS011;7263;49.418;11.064;2022-12-18T05:43:45;25.20;;;19.23;;
14358;SDS011;7263;49.418;11.064;2022-12-18T05:46:13;24.57;;;18.33;;
14358;SDS011;7263;49.418;11.064;2022-12-18T05:48:42;26.70;;;19.20;;
14358;SDS011;7263;49.418;11.064;2022-12-18T05:51:11;24.77;;;18.23;;
14358;SDS011;7263;49.418;11.064;2022-12-18T05:53:39;25.83;;;18.97;;
14358;SDS011;7263;49.418;11.064;2022-12-18T05:56:09;24.47;;;19.03;;
14358;SDS011;7263;49.418;11.064;2022-12-18T05:58:38;27.40;;;19.70;;
14358;SDS011;7263;49.418;11.064;2022-12-18T06:01:06;26.77;;;18.53;;
14358;SDS011;7263;49.418;11.064;2022-12-18T06:03:34;28.17;;;19.40;;
14358;SDS011;7263;49.418;11.064;2022-12-18T06:06:01;25.47;;;17.83;;
14358;SDS011;7263;49.418;11.064;2022-12-18T06:08:28;24.53;;;17.97;;
14358;SDS011;7263;49.418;11.064;2022-12-18T06:10:55;26.23;;;18.90;;
14358;SDS011;7263;49.418;11.064;2022-12-18T06:13:23;26.30;;;18.53;;
14358;SDS011;7263;49.418;11.064;2022-12-18T06:15:50;25.93;;;19.20;;
14358;SDS011;7263;49.418;11.064;2022-12-18T06:18:16;26.37;;;18.80;;
14358;SDS011;7263;49.418;11.064;2022-12-18T06:20:43;27.27;;;19.97;;
14358;SDS011;7263;49.418;11.064;2022-12-18T06:23:10;24.77;;;19.10;;
14358;SDS011;7263;49.418;11.064;2022-12-18T06:25:37;27.07;;;20.73;;
14358;SDS011;7263;49.418;11.064;2022-12-18T06:28:05;26.30;;;20.13;;
14358;SDS011;7263;49.418;11.064;2022-12-18T06:30:33;26.77;;;19.90;;
14358;SDS011;7263;49.418;11.064;2022-12-18T06:33:01;26.20;;;19.70;;
14358;SDS011;7263;49.418;11.064;2022-12-18T06:35:28;27.00;;;19.70;;
14358;SDS011;7263;49.418;11.064;2022-12-18T06:37:54;24.40;;;18.30;;
14358;SDS011;7263;49.418;11.064;2022-12-18T06:40:21;25.83;;;18.23;;
14358;SDS011;7263;49.418;11.064;2022-12-18T06:42:48;25.10;;;18.43;;
14358;SDS011;7263;49.418;11.064;2022-12-18T06:45:15;25.63;;;18.40;;
14358;SDS011;7263;49.418;11.064;2022-12-18T06:47:43;27.40;;;19.13;;
14358;SDS011;7263;49.418;11.064;2022-12-18T06:50:10;27.23;;;19.43;;
14358;SDS011;7263;49.418;11.064;2022-12-18T06:52:38;26.70;;;18.17;;
14358;SDS011;7263;49.418;11.064;2022-12-18T06:55:05;26.40;;;19.00;;
14358;SDS011;7263;49.418;11.064;2022-12-18T06:57:33;24.83;;;18.03;;
14358;SDS011;7263;49.418;11.064;2022-12-18T07:00:00;25.07;;;18.37;;
14358;SDS011;7263;49.418;11.064;2022-12-18T07:02:27;23.50;;;17.67;;
14358;SDS011;7263;49.418;11.064;2022-12-18T07:04:56;26.50;;;18.93;;
14358;SDS011;7263;49.418;11.064;2022-12-18T07:07:22;27.07;;;19.73;;
14358;SDS011;7263;49.418;11.064;2022-12-18T07:09:50;24.20;;;17.20;;
14358;SDS011;7263;49.418;11.064;2022-12-18T07:12:17;24.20;;;18.63;;
14358;SDS011;7263;49.418;11.064;2022-12-18T07:14:44;25.83;;;18.20;;
14358;SDS011;7263;49.418;11.064;2022-12-18T07:17:11;26.50;;;17.50;;
14358;SDS011;7263;49.418;11.064;2022-12-18T07:19:38;24.47;;;17.07;;
14358;SDS011;7263;49.418;11.064;2022-12-18T07:22:06;23.27;;;16.77;;
14358;SDS011;7263;49.418;11.064;2022-12-18T07:24:32;24.73;;;17.17;;
14358;SDS011;7263;49.418;11.064;2022-12-18T07:26:59;23.33;;;17.27;;
14358;SDS011;7263;49.418;11.064;2022-12-18T07:29:26;24.00;;;17.03;;
14358;SDS011;7263;49.418;11.064;2022-12-18T07:31:54;25.83;;;17.80;;
14358;SDS011;7263;49.418;11.064;2022-12-18T07:34:20;25.27;;;18.60;;
14358;SDS011;7263;49.418;11.064;2022-12-18T07:36:47;29.70;;;21.50;;
14358;SDS011;7263;49.418;11.064;2022-12-18T07:39:16;21.97;;;15.80;;
14358;SDS011;7263;49.418;11.064;2022-12-18T07:41:42;22.17;;;15.87;;
14358;SDS011;7263;49.418;11.064;2022-12-18T07:44:29;23.60;;;15.33;;
14358;SDS011;7263;49.418;11.064;2022-12-18T07:46:56;21.30;;;14.97;;
14358;SDS011;7263;49.418;11.064;2022-12-18T07:49:23;21.70;;;15.27;;
14358;SDS011;7263;49.418;11.064;2022-12-18T07:51:50;23.10;;;15.37;;
14358;SDS011;7263;49.418;11.064;2022-12-18T07:54:18;21.90;;;15.70;;
14358;SDS011;7263;49.418;11.064;2022-12-18T07:56:45;20.70;;;14.57;;
14358;SDS011;7263;49.418;11.064;2022-12-18T07:59:11;19.40;;;13.77;;
14358;SDS011;7263;49.418;11.064;2022-12-18T08:01:38;19.93;;;15.07;;
14358;SDS011;7263;49.418;11.064;2022-12-18T08:04:05;34.63;;;25.57;;
14358;SDS011;7263;49.418;11.064;2022-12-18T08:06:32;53.77;;;38.27;;
14358;SDS011;7263;49.418;11.064;2022-12-18T08:08:59;30.70;;;23.37;;
14358;SDS011;7263;49.418;11.064;2022-12-18T08:11:27;31.90;;;22.27;;
14358;SDS011;7263;49.418;11.064;2022-12-18T08:13:54;18.80;;;15.03;;
14358;SDS011;7263;49.418;11.064;2022-12-18T08:16:22;21.03;;;15.23;;
14358;SDS011;7263;49.418;11.064;2022-12-18T08:18:51;19.17;;;14.70;;
14358;SDS011;7263;49.418;11.064;2022-12-18T08:21:19;19.50;;;15.47;;
14358;SDS011;7263;49.418;11.064;2022-12-18T08:23:48;17.80;;;14.73;;
14358;SDS011;7263;49.418;11.064;2022-12-18T08:26:15;17.70;;;13.60;;
14358;SDS011;7263;49.418;11.064;2022-12-18T08:28:43;15.87;;;13.57;;
14358;SDS011;7263;49.418;11.064;2022-12-18T08:31:10;18.13;;;13.80;;
14358;SDS011;7263;49.418;11.064;2022-12-18T08:33:38;18.67;;;13.20;;
14358;SDS011;7263;49.418;11.064;2022-12-18T08:36:05;17.73;;;13.10;;
14358;SDS011;7263;49.418;11.064;2022-12-18T08:38:33;17.33;;;12.97;;
14358;SDS011;7263;49.418;11.064;2022-12-18T08:40:59;18.63;;;13.97;;
14358;SDS011;7263;49.418;11.064;2022-12-18T08:43:27;18.10;;;13.57;;
14358;SDS011;7263;49.418;11.064;2022-12-18T08:46:12;19.07;;;13.13;;
14358;SDS011;7263;49.418;11.064;2022-12-18T08:48:40;18.80;;;14.20;;
14358;SDS011;7263;49.418;11.064;2022-12-18T08:51:07;18.37;;;14.30;;
14358;SDS011;7263;49.418;11.064;2022-12-18T08:53:35;18.30;;;14.63;;
14358;SDS011;7263;49.418;11.064;2022-12-18T08:56:02;20.83;;;15.23;;
14358;SDS011;7263;49.418;11.064;2022-12-18T08:58:30;18.13;;;14.13;;
14358;SDS011;7263;49.418;11.064;2022-12-18T09:00:59;18.13;;;13.87;;
14358;SDS011;7263;49.418;11.064;2022-12-18T09:03:28;19.67;;;14.37;;
14358;SDS011;7263;49.418;11.064;2022-12-18T09:05:54;19.60;;;15.00;;
14358;SDS011;7263;49.418;11.064;2022-12-18T09:08:22;18.07;;;14.50;;
14358;SDS011;7263;49.418;11.064;2022-12-18T09:10:49;20.00;;;15.23;;
14358;SDS011;7263;49.418;11.064;2022-12-18T09:13:16;17.80;;;13.87;;
14358;SDS011;7263;49.418;11.064;2022-12-18T09:15:44;18.97;;;13.90;;
14358;SDS011;7263;49.418;11.064;2022-12-18T09:18:13;17.93;;;13.37;;
14358;SDS011;7263;49.418;11.064;2022-12-18T09:20:42;19.73;;;14.23;;
14358;SDS011;7263;49.418;11.064;2022-12-18T09:23:10;18.03;;;13.50;;
14358;SDS011;7263;49.418;11.064;2022-12-18T09:25:37;18.80;;;14.37;;
14358;SDS011;7263;49.418;11.064;2022-12-18T09:28:05;18.33;;;13.77;;
14358;SDS011;7263;49.418;11.064;2022-12-18T09:30:36;18.83;;;14.17;;
14358;SDS011;7263;49.418;11.064;2022-12-18T09:33:04;16.97;;;12.90;;
14358;SDS011;7263;49.418;11.064;2022-12-18T09:35:30;16.37;;;12.20;;
14358;SDS011;7263;49.418;11.064;2022-12-18T09:37:59;16.27;;;11.97;;
14358;SDS011;7263;49.418;11.064;2022-12-18T09:40:34;15.27;;;11.63;;
14358;SDS011;7263;49.418;11.064;2022-12-18T09:43:05;17.50;;;12.30;;
14358;SDS011;7263;49.418;11.064;2022-12-18T09:45:38;16.67;;;12.70;;
14358;SDS011;7263;49.418;11.064;2022-12-18T09:48:09;15.27;;;11.57;;
14358;SDS011;7263;49.418;11.064;2022-12-18T09:50:40;19.40;;;15.23;;
14358;SDS011;7263;49.418;11.064;2022-12-18T09:53:12;15.33;;;11.73;;
14358;SDS011;7263;49.418;11.064;2022-12-18T09:55:42;16.20;;;12.13;;
14358;SDS011;7263;49.418;11.064;2022-12-18T09:58:13;16.43;;;13.00;;
14358;SDS011;7263;49.418;11.064;2022-12-18T10:00:44;18.93;;;14.70;;
14358;SDS011;7263;49.418;11.064;2022-12-18T10:03:12;20.10;;;15.57;;
14358;SDS011;7263;49.418;11.064;2022-12-18T10:05:41;18.37;;;14.30;;
14358;SDS011;7263;49.418;11.064;2022-12-18T10:08:17;16.73;;;13.20;;
14358;SDS011;7263;49.418;11.064;2022-12-18T10:10:50;15.37;;;12.23;;
14358;SDS011;7263;49.418;11.064;2022-12-18T10:13:21;17.60;;;13.57;;
14358;SDS011;7263;49.418;11.064;2022-12-18T10:15:59;15.90;;;12.50;;
14358;SDS011;7263;49.418;11.064;2022-12-18T10:18:36;14.83;;;11.30;;
14358;SDS011;7263;49.418;11.064;2022-12-18T10:21:17;17.00;;;13.53;;
14358;SDS011;7263;49.418;11.064;2022-12-18T10:23:51;17.27;;;13.70;;
14358;SDS011;7263;49.418;11.064;2022-12-18T10:26:26;16.73;;;13.23;;
14358;SDS011;7263;49.418;11.064;2022-12-18T10:28:53;15.90;;;12.67;;
14358;SDS011;7263;49.418;11.064;2022-12-18T10:31:22;17.77;;;12.60;;
14358;SDS011;7263;49.418;11.064;2022-12-18T10:33:50;17.47;;;12.73;;
14358;SDS011;7263;49.418;11.064;2022-12-18T10:36:19;17.07;;;12.53;;
14358;SDS011;7263;49.418;11.064;2022-12-18T10:38:46;15.10;;;10.97;;
14358;SDS011;7263;49.418;11.064;2022-12-18T10:41:24;14.57;;;11.43;;
14358;SDS011;7263;49.418;11.064;2022-12-18T10:44:10;14.77;;;11.20;;
14358;SDS011;7263;49.418;11.064;2022-12-18T10:46:38;15.70;;;12.13;;
14358;SDS011;7263;49.418;11.064;2022-12-18T10:49:05;17.50;;;12.37;;
14358;SDS011;7263;49.418;11.064;2022-12-18T10:51:45;13.70;;;11.40;;
14358;SDS011;7263;49.418;11.064;2022-12-18T10:54:13;15.07;;;10.90;;
14358;SDS011;7263;49.418;11.064;2022-12-18T10:56:43;16.70;;;12.10;;
14358;SDS011;7263;49.418;11.064;2022-12-18T10:59:11;13.87;;;10.83;;
14358;SDS011;7263;49.418;11.064;2022-12-18T11:01:46;16.27;;;10.90;;
14358;SDS011;7263;49.418;11.064;2022-12-18T11:04:16;16.83;;;11.83;;
14358;SDS011;7263;49.418;11.064;2022-12-18T11:06:52;16.33;;;11.90;;
14358;SDS011;7263;49.418;11.064;2022-12-18T11:09:21;14.70;;;10.80;;
14358;SDS011;7263;49.418;11.064;2022-12-18T11:11:51;16.17;;;12.20;;
14358;SDS011;7263;49.418;11.064;2022-12-18T11:14:21;16.30;;;11.50;;
14358;SDS011;7263;49.418;11.064;2022-12-18T11:16:50;16.97;;;11.83;;
14358;SDS011;7263;49.418;11.064;2022-12-18T11:19:23;17.63;;;12.00;;
14358;SDS011;7263;49.418;11.064;2022-12-18T11:21:56;16.50;;;11.30;;
14358;SDS011;7263;49.418;11.064;2022-12-18T11:24:25;16.60;;;12.37;;
14358;SDS011;7263;49.418;11.064;2022-12-18T11:26:56;15.77;;;11.67;;
14358;SDS011;7263;49.418;11.064;2022-12-18T11:29:30;18.93;;;12.30;;
14358;SDS011;7263;49.418;11.064;2022-12-18T11:32:12;15.57;;;11.30;;
14358;SDS011;7263;49.418;11.064;2022-12-18T11:35:00;14.73;;;10.70;;
14358;SDS011;7263;49.418;11.064;2022-12-18T11:37:35;14.50;;;11.77;;
14358;SDS011;7263;49.418;11.064;2022-12-18T11:40:03;17.70;;;11.20;;
14358;SDS011;7263;49.418;11.064;2022-12-18T11:42:39;14.27;;;10.97;;
14358;SDS011;7263;49.418;11.064;2022-12-18T11:45:20;15.43;;;10.93;;
14358;SDS011;7263;49.418;11.064;2022-12-18T11:47:54;14.37;;;10.27;;
14358;SDS011;7263;49.418;11.064;2022-12-18T11:50:25;14.07;;;10.97;;
14358;SDS011;7263;49.418;11.064;2022-12-18T11:52:56;15.60;;;11.70;;
14358;SDS011;7263;49.418;11.064;2022-12-18T11:55:25;18.23;;;11.77;;
14358;SDS011;7263;49.418;11.064;2022-12-18T11:58:04;16.27;;;11.47;;
14358;SDS011;7263;49.418;11.064;2022-12-18T12:00:38;15.80;;;11.67;;
14358;SDS011;7263;49.418;11.064;2022-12-18T12:03:20;14.40;;;10.80;;
14358;SDS011;7263;49.418;11.064;2022-12-18T12:06:03;17.97;;;11.27;;
14358;SDS011;7263;49.418;11.064;2022-12-18T12:08:39;17.17;;;12.33;;
14358;SDS011;7263;49.418;11.064;2022-12-18T12:11:16;17.83;;;13.50;;
14358;SDS011;7263;49.418;11.064;2022-12-18T12:13:57;20.10;;;14.23;;
14358;SDS011;7263;49.418;11.064;2022-12-18T12:16:34;19.10;;;13.67;;
14358;SDS011;7263;49.418;11.064;2022-12-18T12:19:15;23.53;;;16.60;;
14358;SDS011;7263;49.418;11.064;2022-12-18T12:21:53;16.70;;;12.60;;
14358;SDS011;7263;49.418;11.064;2022-12-18T12:24:28;18.07;;;13.33;;
14358;SDS011;7263;49.418;11.064;2022-12-18T12:27:04;15.73;;;12.37;;
14358;SDS011;7263;49.418;11.064;2022-12-18T12:29:43;16.77;;;12.53;;
14358;SDS011;7263;49.418;11.064;2022-12-18T12:32:28;17.03;;;12.93;;
14358;SDS011;7263;49.418;11.064;2022-12-18T12:35:10;16.30;;;12.67;;
14358;SDS011;7263;49.418;11.064;2022-12-18T12:37:51;15.97;;;13.13;;
14358;SDS011;7263;49.418;11.064;2022-12-18T12:40:27;17.80;;;11.77;;
14358;SDS011;7263;49.418;11.064;2022-12-18T12:43:01;17.83;;;12.60;;
14358;SDS011;7263;49.418;11.064;2022-12-18T12:45:42;17.93;;;12.20;;
14358;SDS011;7263;49.418;11.064;2022-12-18T12:48:16;21.70;;;14.10;;
14358;SDS011;7263;49.418;11.064;2022-12-18T12:50:47;17.30;;;12.97;;
14358;SDS011;7263;49.418;11.064;2022-12-18T12:53:17;17.47;;;12.57;;
14358;SDS011;7263;49.418;11.064;2022-12-18T12:55:51;17.93;;;12.47;;
14358;SDS011;7263;49.418;11.064;2022-12-18T12:58:21;18.40;;;13.50;;
14358;SDS011;7263;49.418;11.064;2022-12-18T13:01:01;17.43;;;12.77;;
14358;SDS011;7263;49.418;11.064;2022-12-18T13:03:42;17.23;;;12.93;;
14358;SDS011;7263;49.418;11.064;2022-12-18T13:06:16;19.40;;;12.83;;
14358;SDS011;7263;49.418;11.064;2022-12-18T13:08:51;18.43;;;13.27;;
14358;SDS011;7263;49.418;11.064;2022-12-18T13:11:28;18.90;;;14.27;;
14358;SDS011;7263;49.418;11.064;2022-12-18T13:17:15;17.37;;;13.73;;
14358;SDS011;7263;49.418;11.064;2022-12-18T13:20:05;64.07;;;37.23;;
14358;SDS011;7263;49.418;11.064;2022-12-18T13:22:34;26.60;;;18.57;;
14358;SDS011;7263;49.418;11.064;2022-12-18T13:25:03;31.77;;;23.43;;
14358;SDS011;7263;49.418;11.064;2022-12-18T13:27:59;19.03;;;14.33;;
14358;SDS011;7263;49.418;11.064;2022-12-18T13:30:48;17.00;;;12.67;;
14358;SDS011;7263;49.418;11.064;2022-12-18T13:36:16;17.57;;;14.77;;
14358;SDS011;7263;49.418;11.064;2022-12-18T13:48:14;16.87;;;13.37;;
14358;SDS011;7263;49.418;11.064;2022-12-18T13:50:53;16.00;;;12.50;;
14358;SDS011;7263;49.418;11.064;2022-12-18T13:53:23;16.30;;;12.50;;
14358;SDS011;7263;49.418;11.064;2022-12-18T13:55:53;16.17;;;12.97;;
14358;SDS011;7263;49.418;11.064;2022-12-18T13:58:21;15.90;;;12.47;;
14358;SDS011;7263;49.418;11.064;2022-12-18T14:00:48;17.37;;;13.53;;
14358;SDS011;7263;49.418;11.064;2022-12-18T14:03:16;17.07;;;12.93;;
14358;SDS011;7263;49.418;11.064;2022-12-18T14:05:45;18.00;;;13.33;;
14358;SDS011;7263;49.418;11.064;2022-12-18T14:08:20;17.43;;;12.40;;
14358;SDS011;7263;49.418;11.064;2022-12-18T14:10:48;15.53;;;13.00;;
14358;SDS011;7263;49.418;11.064;2022-12-18T14:13:19;18.60;;;13.30;;
14358;SDS011;7263;49.418;11.064;2022-12-18T14:15:50;22.93;;;17.43;;
14358;SDS011;7263;49.418;11.064;2022-12-18T14:18:19;17.17;;;12.87;;
14358;SDS011;7263;49.418;11.064;2022-12-18T14:20:49;17.00;;;13.30;;
14358;SDS011;7263;49.418;11.064;2022-12-18T14:23:28;17.47;;;13.17;;
14358;SDS011;7263;49.418;11.064;2022-12-18T14:25:57;19.33;;;14.30;;
14358;SDS011;7263;49.418;11.064;2022-12-18T14:28:24;20.63;;;15.10;;
14358;SDS011;7263;49.418;11.064;2022-12-18T14:30:51;17.10;;;12.67;;
14358;SDS011;7263;49.418;11.064;2022-12-18T14:33:21;17.67;;;12.23;;
14358;SDS011;7263;49.418;11.064;2022-12-18T14:35:57;17.40;;;13.30;;
14358;SDS011;7263;49.418;11.064;2022-12-18T14:38:30;15.37;;;11.80;;
14358;SDS011;7263;49.418;11.064;2022-12-18T14:40:58;20.17;;;15.20;;
14358;SDS011;7263;49.418;11.064;2022-12-18T14:43:26;16.87;;;13.37;;
14358;SDS011;7263;49.418;11.064;2022-12-18T14:45:54;16.97;;;12.20;;
14358;SDS011;7263;49.418;11.064;2022-12-18T14:48:21;16.73;;;12.57;;
14358;SDS011;7263;49.418;11.064;2022-12-18T14:51:00;15.07;;;12.53;;
14358;SDS011;7263;49.418;11.064;2022-12-18T14:53:32;16.47;;;13.27;;
14358;SDS011;7263;49.418;11.064;2022-12-18T14:56:02;16.70;;;13.17;;